Covington, Indiana
Current Conditions -  °F | °C
As of 8:55 PM on Wednesday 26 Nov 2014 (Local Time) from KDNV Reporting Station
Overcast Overcast  
Wind Chill: 18°   Ceiling: 8000
Heat Index: 28°   Visibility: 10mi
Dew Point: 24°   Wind: 10mph
Humidity: 85%   Direction: 40°NE
Pressure: 30.08"   Gusts: NA
Location:  40.14°N, 87.39°W
Report Text: KDNV 270155Z AUTO 04009KT 10SM SCT070 OVC080 M02/M04 A3008 RMK AO2 T10231045
Loading
Personal Weather Stations






























Interactive Weather Map New forecast layout! Learn more

10-Day Weather Forecast

Advertisements
Track Severe Weather on mobile